sensor_id;sensor_type;location;lat;lon;timestamp;pressure;altitude;pressure_sealevel;temperature;humidity
22031;BME280;11179;52.106;21.024;2023-08-31T00:01:09;99496.28;;;17.16;74.59
22031;BME280;11179;52.106;21.024;2023-08-31T00:03:35;99487.94;;;17.16;74.63
22031;BME280;11179;52.106;21.024;2023-08-31T00:06:03;99493.31;;;17.12;74.37
22031;BME280;11179;52.106;21.024;2023-08-31T00:08:29;99490.22;;;17.14;74.43
22031;BME280;11179;52.106;21.024;2023-08-31T00:10:59;99488.28;;;17.14;74.41
22031;BME280;11179;52.106;21.024;2023-08-31T00:13:25;99490.22;;;17.14;74.61
22031;BME280;11179;52.106;21.024;2023-08-31T00:15:54;99485.31;;;17.11;74.49
22031;BME280;11179;52.106;21.024;2023-08-31T00:18:19;99484.81;;;17.09;74.42
22031;BME280;11179;52.106;21.024;2023-08-31T00:20:46;99489.88;;;17.07;74.60
22031;BME280;11179;52.106;21.024;2023-08-31T00:23:11;99491.50;;;17.08;74.41
22031;BME280;11179;52.106;21.024;2023-08-31T00:25:36;99483.50;;;17.06;74.56
22031;BME280;11179;52.106;21.024;2023-08-31T00:28:02;99483.34;;;17.03;74.29
22031;BME280;11179;52.106;21.024;2023-08-31T00:30:30;99485.00;;;17.04;74.65
22031;BME280;11179;52.106;21.024;2023-08-31T00:32:57;99479.59;;;16.99;74.37
22031;BME280;11179;52.106;21.024;2023-08-31T00:35:26;99488.91;;;17.03;74.51
22031;BME280;11179;52.106;21.024;2023-08-31T00:37:52;99493.94;;;17.01;74.15
22031;BME280;11179;52.106;21.024;2023-08-31T00:40:22;99498.00;;;16.95;74.50
22031;BME280;11179;52.106;21.024;2023-08-31T00:42:47;99481.19;;;16.91;74.35
22031;BME280;11179;52.106;21.024;2023-08-31T00:45:12;99485.28;;;16.94;74.29
22031;BME280;11179;52.106;21.024;2023-08-31T00:47:38;99482.00;;;16.92;74.28
22031;BME280;11179;52.106;21.024;2023-08-31T00:50:06;99485.28;;;16.94;74.48
22031;BME280;11179;52.106;21.024;2023-08-31T00:52:32;99484.44;;;16.93;74.31
22031;BME280;11179;52.106;21.024;2023-08-31T00:54:58;99487.22;;;16.93;74.24
22031;BME280;11179;52.106;21.024;2023-08-31T00:57:23;99484.44;;;16.93;74.52
22031;BME280;11179;52.106;21.024;2023-08-31T00:59:51;99485.94;;;16.91;74.52
22031;BME280;11179;52.106;21.024;2023-08-31T01:02:32;99493.09;;;16.92;74.40
22031;BME280;11179;52.106;21.024;2023-08-31T01:05:08;99489.84;;;16.90;74.30
22031;BME280;11179;52.106;21.024;2023-08-31T01:07:50;99503.72;;;16.90;74.49
22031;BME280;11179;52.106;21.024;2023-08-31T01:13:15;99501.88;;;16.85;74.39
22031;BME280;11179;52.106;21.024;2023-08-31T01:15:51;99501.19;;;16.79;74.22
22031;BME280;11179;52.106;21.024;2023-08-31T01:18:21;99494.53;;;16.80;74.31
22031;BME280;11179;52.106;21.024;2023-08-31T01:20:58;99495.97;;;16.78;74.40
22031;BME280;11179;52.106;21.024;2023-08-31T01:24:10;99494.84;;;16.79;74.42
22031;BME280;11179;52.106;21.024;2023-08-31T01:26:17;99497.59;;;16.79;74.56
22031;BME280;11179;52.106;21.024;2023-08-31T01:28:43;99495.81;;;16.74;74.50
22031;BME280;11179;52.106;21.024;2023-08-31T01:31:08;99504.94;;;16.75;74.31
22031;BME280;11179;52.106;21.024;2023-08-31T01:33:34;99508.03;;;16.73;74.36
22031;BME280;11179;52.106;21.024;2023-08-31T01:36:03;99515.84;;;16.71;74.45
22031;BME280;11179;52.106;21.024;2023-08-31T01:38:32;99496.59;;;16.66;74.34
22031;BME280;11179;52.106;21.024;2023-08-31T01:41:07;99501.31;;;16.66;74.64
22031;BME280;11179;52.106;21.024;2023-08-31T01:43:35;99502.63;;;16.68;74.49
22031;BME280;11179;52.106;21.024;2023-08-31T01:46:00;99508.16;;;16.68;74.30
22031;BME280;11179;52.106;21.024;2023-08-31T01:48:25;99502.13;;;16.66;74.75
22031;BME280;11179;52.106;21.024;2023-08-31T01:50:51;99502.94;;;16.67;74.48
22031;BME280;11179;52.106;21.024;2023-08-31T01:53:16;99507.66;;;16.66;74.23
22031;BME280;11179;52.106;21.024;2023-08-31T01:55:41;99510.28;;;16.63;74.45
22031;BME280;11179;52.106;21.024;2023-08-31T01:58:06;99506.50;;;16.59;74.25
22031;BME280;11179;52.106;21.024;2023-08-31T02:00:32;99512.34;;;16.57;74.39
22031;BME280;11179;52.106;21.024;2023-08-31T02:03:00;99520.16;;;16.55;74.53
22031;BME280;11179;52.106;21.024;2023-08-31T02:05:26;99508.06;;;16.51;74.62
22031;BME280;11179;52.106;21.024;2023-08-31T02:07:51;99511.81;;;16.46;74.61
22031;BME280;11179;52.106;21.024;2023-08-31T02:10:16;99519.28;;;16.46;74.56
22031;BME280;11179;52.106;21.024;2023-08-31T02:12:41;99525.28;;;16.39;74.52
22031;BME280;11179;52.106;21.024;2023-08-31T02:15:07;99511.72;;;16.38;74.66
22031;BME280;11179;52.106;21.024;2023-08-31T02:17:36;99514.66;;;16.33;74.74
22031;BME280;11179;52.106;21.024;2023-08-31T02:20:01;99520.69;;;16.35;74.89
22031;BME280;11179;52.106;21.024;2023-08-31T02:22:33;99514.78;;;16.28;74.75
22031;BME280;11179;52.106;21.024;2023-08-31T02:24:59;99515.28;;;16.30;74.66
22031;BME280;11179;52.106;21.024;2023-08-31T02:27:26;99520.63;;;16.26;74.69
22031;BME280;11179;52.106;21.024;2023-08-31T02:29:51;99521.44;;;16.27;74.81
22031;BME280;11179;52.106;21.024;2023-08-31T02:32:16;99515.28;;;16.30;74.73
22031;BME280;11179;52.106;21.024;2023-08-31T02:34:42;99518.06;;;16.30;74.77
22031;BME280;11179;52.106;21.024;2023-08-31T02:37:07;99515.28;;;16.30;74.78
22031;BME280;11179;52.106;21.024;2023-08-31T02:39:32;99518.88;;;16.30;75.08
22031;BME280;11179;52.106;21.024;2023-08-31T02:41:58;99522.97;;;16.33;74.99
22031;BME280;11179;52.106;21.024;2023-08-31T02:44:23;99517.44;;;16.33;74.79
22031;BME280;11179;52.106;21.024;2023-08-31T02:46:48;99515.47;;;16.33;74.84
22031;BME280;11179;52.106;21.024;2023-08-31T02:49:13;99523.78;;;16.33;74.91
22031;BME280;11179;52.106;21.024;2023-08-31T02:51:39;99516.91;;;16.31;74.90
22031;BME280;11179;52.106;21.024;2023-08-31T02:54:04;99522.16;;;16.32;74.64
22031;BME280;11179;52.106;21.024;2023-08-31T02:56:29;99522.34;;;16.36;74.55
22031;BME280;11179;52.106;21.024;2023-08-31T02:58:55;99531.13;;;16.38;74.54
22031;BME280;11179;52.106;21.024;2023-08-31T03:01:20;99535.53;;;16.39;74.71
22031;BME280;11179;52.106;21.024;2023-08-31T03:03:45;99529.16;;;16.38;74.64
22031;BME280;11179;52.106;21.024;2023-08-31T03:06:11;99528.84;;;16.40;74.59
22031;BME280;11179;52.106;21.024;2023-08-31T03:08:37;99539.94;;;16.40;74.64
22031;BME280;11179;52.106;21.024;2023-08-31T03:11:04;99534.41;;;16.40;74.46
22031;BME280;11179;52.106;21.024;2023-08-31T03:13:30;99542.72;;;16.40;74.61
22031;BME280;11179;52.106;21.024;2023-08-31T03:15:55;99543.38;;;16.37;74.68
22031;BME280;11179;52.106;21.024;2023-08-31T03:18:22;99542.88;;;16.35;74.54
22031;BME280;11179;52.106;21.024;2023-08-31T03:20:47;99550.16;;;16.31;74.65
22031;BME280;11179;52.106;21.024;2023-08-31T03:23:12;99538.06;;;16.27;74.77
22031;BME280;11179;52.106;21.024;2023-08-31T03:25:38;99536.31;;;16.31;74.96
22031;BME280;11179;52.106;21.024;2023-08-31T03:28:03;99540.72;;;16.32;74.84
22031;BME280;11179;52.106;21.024;2023-08-31T03:30:28;99538.25;;;16.30;74.91
22031;BME280;11179;52.106;21.024;2023-08-31T03:32:54;99541.53;;;16.32;74.81
22031;BME280;11179;52.106;21.024;2023-08-31T03:35:19;99541.84;;;16.31;74.70
22031;BME280;11179;52.106;21.024;2023-08-31T03:37:47;99558.66;;;16.34;75.18
22031;BME280;11179;52.106;21.024;2023-08-31T03:40:13;99551.19;;;16.35;74.98
22031;BME280;11179;52.106;21.024;2023-08-31T03:42:38;99551.69;;;16.37;74.81
22031;BME280;11179;52.106;21.024;2023-08-31T03:45:04;99552.81;;;16.36;74.98
22031;BME280;11179;52.106;21.024;2023-08-31T03:47:30;99554.44;;;16.37;75.08
22031;BME280;11179;52.106;21.024;2023-08-31T03:49:55;99565.19;;;16.38;74.81
22031;BME280;11179;52.106;21.024;2023-08-31T03:52:21;99565.53;;;16.37;74.85
22031;BME280;11179;52.106;21.024;2023-08-31T03:54:46;99564.72;;;16.36;74.92
22031;BME280;11179;52.106;21.024;2023-08-31T03:57:11;99562.75;;;16.37;74.82
22031;BME280;11179;52.106;21.024;2023-08-31T03:59:37;99570.88;;;16.33;75.05
22031;BME280;11179;52.106;21.024;2023-08-31T04:02:02;99561.25;;;16.31;74.96
22031;BME280;11179;52.106;21.024;2023-08-31T04:04:27;99560.09;;;16.32;74.85
22031;BME280;11179;52.106;21.024;2023-08-31T04:06:52;99554.25;;;16.33;74.89
22031;BME280;11179;52.106;21.024;2023-08-31T04:09:18;99553.75;;;16.31;74.94
22031;BME280;11179;52.106;21.024;2023-08-31T04:11:44;99558.03;;;16.37;74.85
22031;BME280;11179;52.106;21.024;2023-08-31T04:14:09;99565.53;;;16.37;74.87
22031;BME280;11179;52.106;21.024;2023-08-31T04:16:34;99556.06;;;16.38;74.76
22031;BME280;11179;52.106;21.024;2023-08-31T04:19:00;99561.59;;;16.38;74.85
22031;BME280;11179;52.106;21.024;2023-08-31T04:21:25;99553.78;;;16.40;74.88
22031;BME280;11179;52.106;21.024;2023-08-31T04:23:50;99551.03;;;16.40;74.91
22031;BME280;11179;52.106;21.024;2023-08-31T04:26:16;99556.25;;;16.41;74.82
22031;BME280;11179;52.106;21.024;2023-08-31T04:28:43;99565.88;;;16.44;74.75
22031;BME280;11179;52.106;21.024;2023-08-31T04:31:08;99569.16;;;16.46;74.57
22031;BME280;11179;52.106;21.024;2023-08-31T04:33:46;99555.31;;;16.46;74.77
22031;BME280;11179;52.106;21.024;2023-08-31T04:36:21;99540.44;;;16.42;74.90
22031;BME280;11179;52.106;21.024;2023-08-31T04:38:58;99558.44;;;16.53;75.00
22031;BME280;11179;52.106;21.024;2023-08-31T04:41:26;99520.19;;;16.33;74.46
22031;BME280;11179;52.106;21.024;2023-08-31T04:44:00;99550.44;;;16.51;74.60
22031;BME280;11179;52.106;21.024;2023-08-31T04:46:31;99489.63;;;16.15;74.84
22031;BME280;11179;52.106;21.024;2023-08-31T04:49:02;99502.03;;;16.18;74.60
22031;BME280;11179;52.106;21.024;2023-08-31T04:51:30;99515.28;;;16.30;74.78
22031;BME280;11179;52.106;21.024;2023-08-31T04:53:56;99524.59;;;16.34;74.79
22031;BME280;11179;52.106;21.024;2023-08-31T04:56:34;99500.69;;;16.15;74.46
22031;BME280;11179;52.106;21.024;2023-08-31T04:59:07;99582.50;;;16.66;74.74
22031;BME280;11179;52.106;21.024;2023-08-31T05:01:39;99545.31;;;16.36;74.60
22031;BME280;11179;52.106;21.024;2023-08-31T05:04:07;99539.09;;;16.31;74.49
22031;BME280;11179;52.106;21.024;2023-08-31T05:06:33;99592.28;;;16.64;74.37
22031;BME280;11179;52.106;21.024;2023-08-31T05:09:02;99601.78;;;16.71;74.21
22031;BME280;11179;52.106;21.024;2023-08-31T05:11:30;99568.38;;;16.54;74.02
22031;BME280;11179;52.106;21.024;2023-08-31T05:16:51;99560.34;;;16.66;73.96
22031;BME280;11179;52.106;21.024;2023-08-31T05:19:19;99552.47;;;16.60;73.68
22031;BME280;11179;52.106;21.024;2023-08-31T05:21:45;99599.84;;;17.03;73.63
22031;BME280;11179;52.106;21.024;2023-08-31T05:24:10;99603.56;;;17.07;73.59
22031;BME280;11179;52.106;21.024;2023-08-31T05:26:35;99606.22;;;17.12;73.40
22031;BME280;11179;52.106;21.024;2023-08-31T05:29:01;99611.13;;;17.15;73.01
22031;BME280;11179;52.106;21.024;2023-08-31T05:31:29;99619.16;;;17.25;72.96
22031;BME280;11179;52.106;21.024;2023-08-31T05:33:54;99609.34;;;17.19;72.63
22031;BME280;11179;52.106;21.024;2023-08-31T05:36:19;99614.31;;;17.31;72.43
22031;BME280;11179;52.106;21.024;2023-08-31T05:38:45;99613.31;;;17.35;72.52
22031;BME280;11179;52.106;21.024;2023-08-31T05:41:11;99624.28;;;17.40;72.24
22031;BME280;11179;52.106;21.024;2023-08-31T05:43:37;99631.97;;;17.43;72.08
22031;BME280;11179;52.106;21.024;2023-08-31T05:46:05;99630.31;;;17.42;72.13
22031;BME280;11179;52.106;21.024;2023-08-31T05:48:30;99629.97;;;17.35;71.98
22031;BME280;11179;52.106;21.024;2023-08-31T05:50:56;99629.97;;;17.35;71.81
22031;BME280;11179;52.106;21.024;2023-08-31T05:53:22;99634.69;;;17.35;71.83
22031;BME280;11179;52.106;21.024;2023-08-31T05:55:47;99631.41;;;17.33;71.46
22031;BME280;11179;52.106;21.024;2023-08-31T05:58:12;99651.53;;;17.47;71.37
22031;BME280;11179;52.106;21.024;2023-08-31T06:00:38;99652.91;;;17.58;71.10
22031;BME280;11179;52.106;21.024;2023-08-31T06:03:03;99651.66;;;17.73;70.58
22031;BME280;11179;52.106;21.024;2023-08-31T06:05:30;99650.22;;;17.92;70.27
22031;BME280;11179;52.106;21.024;2023-08-31T06:07:57;99650.41;;;18.13;69.65
22031;BME280;11179;52.106;21.024;2023-08-31T06:10:22;99653.19;;;18.31;69.62
22031;BME280;11179;52.106;21.024;2023-08-31T06:12:48;99650.75;;;18.55;68.71
22031;BME280;11179;52.106;21.024;2023-08-31T06:15:14;99654.84;;;18.75;68.17
22031;BME280;11179;52.106;21.024;2023-08-31T06:17:40;99651.69;;;18.85;67.53
22031;BME280;11179;52.106;21.024;2023-08-31T06:20:07;99660.19;;;18.88;66.88
22031;BME280;11179;52.106;21.024;2023-08-31T06:22:33;99656.75;;;18.83;66.65
22031;BME280;11179;52.106;21.024;2023-08-31T06:24:59;99664.94;;;18.88;66.60
22031;BME280;11179;52.106;21.024;2023-08-31T06:27:30;99660.69;;;18.90;66.16
22031;BME280;11179;52.106;21.024;2023-08-31T06:30:20;99647.56;;;18.91;65.49
22031;BME280;11179;52.106;21.024;2023-08-31T06:33:16;99610.47;;;18.78;65.23
22031;BME280;11179;52.106;21.024;2023-08-31T06:35:59;99653.88;;;19.17;64.49
22031;BME280;11179;52.106;21.024;2023-08-31T06:38:28;99607.97;;;18.94;63.96
22031;BME280;11179;52.106;21.024;2023-08-31T06:41:03;99610.50;;;19.25;63.64
22031;BME280;11179;52.106;21.024;2023-08-31T06:43:29;99669.28;;;19.91;62.91
22031;BME280;11179;52.106;21.024;2023-08-31T06:46:03;99678.97;;;20.14;61.91
22031;BME280;11179;52.106;21.024;2023-08-31T06:48:29;99628.25;;;20.00;61.15
22031;BME280;11179;52.106;21.024;2023-08-31T06:50:56;99613.38;;;19.96;61.04
22031;BME280;11179;52.106;21.024;2023-08-31T06:53:27;99625.44;;;20.09;60.35
22031;BME280;11179;52.106;21.024;2023-08-31T06:55:52;99675.47;;;20.47;59.96
22031;BME280;11179;52.106;21.024;2023-08-31T06:58:17;99675.28;;;20.64;59.33
22031;BME280;11179;52.106;21.024;2023-08-31T07:03:39;99681.28;;;21.53;57.77
22031;BME280;11179;52.106;21.024;2023-08-31T07:06:11;99629.38;;;21.64;56.93
22031;BME280;11179;52.106;21.024;2023-08-31T07:08:50;99603.75;;;21.74;56.33
22031;BME280;11179;52.106;21.024;2023-08-31T07:11:22;99645.69;;;22.26;55.20
22031;BME280;11179;52.106;21.024;2023-08-31T07:13:54;99630.03;;;22.37;54.56
22031;BME280;11179;52.106;21.024;2023-08-31T07:16:27;99662.09;;;22.68;54.27
22031;BME280;11179;52.106;21.024;2023-08-31T07:18:56;99625.19;;;22.34;54.36
22031;BME280;11179;52.106;21.024;2023-08-31T07:24:21;99681.28;;;23.09;52.44
22031;BME280;11179;52.106;21.024;2023-08-31T07:26:51;99669.03;;;23.45;51.43
22031;BME280;11179;52.106;21.024;2023-08-31T07:29:20;99635.94;;;23.82;50.39
22031;BME280;11179;52.106;21.024;2023-08-31T07:32:18;99697.50;;;24.65;49.13
22031;BME280;11179;52.106;21.024;2023-08-31T07:35:04;99650.09;;;24.59;48.35
22031;BME280;11179;52.106;21.024;2023-08-31T07:37:44;99621.25;;;24.82;47.92
22031;BME280;11179;52.106;21.024;2023-08-31T07:40:25;99668.69;;;25.52;47.33
22031;BME280;11179;52.106;21.024;2023-08-31T07:42:51;99682.91;;;25.85;47.02
22031;BME280;11179;52.106;21.024;2023-08-31T07:45:17;99685.94;;;26.22;46.09
22031;BME280;11179;52.106;21.024;2023-08-31T07:47:42;99690.50;;;26.08;45.58
22031;BME280;11179;52.106;21.024;2023-08-31T07:50:08;99681.88;;;25.71;45.18
22031;BME280;11179;52.106;21.024;2023-08-31T07:52:34;99682.69;;;25.48;45.48
22031;BME280;11179;52.106;21.024;2023-08-31T07:54:59;99696.63;;;25.41;45.39
22031;BME280;11179;52.106;21.024;2023-08-31T07:57:25;99696.00;;;25.28;45.36
22031;BME280;11179;52.106;21.024;2023-08-31T07:59:51;99701.03;;;25.19;45.33
22031;BME280;11179;52.106;21.024;2023-08-31T08:02:16;99720.41;;;25.05;44.98
22031;BME280;11179;52.106;21.024;2023-08-31T08:04:42;99716.41;;;25.06;44.98
22031;BME280;11179;52.106;21.024;2023-08-31T08:07:07;99722.31;;;25.20;44.41
22031;BME280;11179;52.106;21.024;2023-08-31T08:09:34;99713.13;;;25.43;43.83
22031;BME280;11179;52.106;21.024;2023-08-31T08:11:59;99712.13;;;25.77;43.78
22031;BME280;11179;52.106;21.024;2023-08-31T08:14:39;99713.56;;;26.43;42.34
22031;BME280;11179;52.106;21.024;2023-08-31T08:17:08;99700.31;;;26.73;41.40
22031;BME280;11179;52.106;21.024;2023-08-31T08:19:34;99690.47;;;26.60;41.45
22031;BME280;11179;52.106;21.024;2023-08-31T08:22:00;99700.31;;;26.44;41.12
22031;BME280;11179;52.106;21.024;2023-08-31T08:24:36;99679.34;;;26.15;40.56
22031;BME280;11179;52.106;21.024;2023-08-31T08:27:07;99686.16;;;26.14;40.88
22031;BME280;11179;52.106;21.024;2023-08-31T08:29:35;99657.34;;;25.94;40.64
22031;BME280;11179;52.106;21.024;2023-08-31T08:32:07;99718.28;;;25.86;40.34
22031;BME280;11179;52.106;21.024;2023-08-31T08:34:34;99668.13;;;25.20;41.60
22031;BME280;11179;52.106;21.024;2023-08-31T08:37:03;99702.88;;;25.54;41.56
22031;BME280;11179;52.106;21.024;2023-08-31T08:39:36;99656.91;;;25.65;41.47
22031;BME280;11179;52.106;21.024;2023-08-31T08:42:06;99661.56;;;26.07;41.48
22031;BME280;11179;52.106;21.024;2023-08-31T08:44:33;99657.44;;;26.57;40.45
22031;BME280;11179;52.106;21.024;2023-08-31T08:47:03;99672.56;;;27.09;39.90
22031;BME280;11179;52.106;21.024;2023-08-31T08:52:41;99675.41;;;27.50;38.23
22031;BME280;11179;52.106;21.024;2023-08-31T08:55:18;99726.47;;;27.41;38.46
22031;BME280;11179;52.106;21.024;2023-08-31T08:57:53;99708.47;;;26.82;38.68
22031;BME280;11179;52.106;21.024;2023-08-31T09:00:41;99676.34;;;26.27;38.92
22031;BME280;11179;52.106;21.024;2023-08-31T09:03:17;99722.69;;;26.36;38.85
22031;BME280;11179;52.106;21.024;2023-08-31T09:05:46;99689.50;;;25.96;39.26
22031;BME280;11179;52.106;21.024;2023-08-31T09:08:30;99707.91;;;25.90;39.06
22031;BME280;11179;52.106;21.024;2023-08-31T09:11:19;99679.34;;;25.62;39.53
22031;BME280;11179;52.106;21.024;2023-08-31T09:13:52;99733.72;;;25.96;39.76
22031;BME280;11179;52.106;21.024;2023-08-31T09:16:26;99712.41;;;25.69;39.52
22031;BME280;11179;52.106;21.024;2023-08-31T09:18:56;99707.91;;;25.45;40.05
22031;BME280;11179;52.106;21.024;2023-08-31T09:21:34;99697.75;;;25.17;40.19
22031;BME280;11179;52.106;21.024;2023-08-31T09:24:05;99724.91;;;25.52;39.71
22031;BME280;11179;52.106;21.024;2023-08-31T09:26:48;99689.31;;;25.37;39.36
22031;BME280;11179;52.106;21.024;2023-08-31T09:29:14;99691.31;;;25.59;39.09
22031;BME280;11179;52.106;21.024;2023-08-31T09:31:46;99741.97;;;26.08;39.04
22031;BME280;11179;52.106;21.024;2023-08-31T09:34:18;99750.53;;;25.92;38.58
22031;BME280;11179;52.106;21.024;2023-08-31T09:36:49;99738.22;;;25.55;39.09
22031;BME280;11179;52.106;21.024;2023-08-31T09:39:15;99717.69;;;25.74;39.22
22031;BME280;11179;52.106;21.024;2023-08-31T09:41:54;99702.38;;;25.97;38.24
22031;BME280;11179;52.106;21.024;2023-08-31T09:44:25;99716.59;;;26.31;38.10
22031;BME280;11179;52.106;21.024;2023-08-31T09:46:54;99732.53;;;26.76;37.76
22031;BME280;11179;52.106;21.024;2023-08-31T09:49:25;99699.25;;;26.55;37.87
22031;BME280;11179;52.106;21.024;2023-08-31T09:51:51;99720.00;;;26.73;37.50
22031;BME280;11179;52.106;21.024;2023-08-31T09:54:21;99733.56;;;26.12;38.14
22031;BME280;11179;52.106;21.024;2023-08-31T09:56:55;99752.53;;;25.92;38.78
22031;BME280;11179;52.106;21.024;2023-08-31T09:59:24;99769.16;;;25.78;38.61
22031;BME280;11179;52.106;21.024;2023-08-31T10:01:54;99718.81;;;25.69;39.18
22031;BME280;11179;52.106;21.024;2023-08-31T10:04:23;99781.66;;;26.26;38.96
22031;BME280;11179;52.106;21.024;2023-08-31T10:06:51;99740.78;;;26.09;38.62
22031;BME280;11179;52.106;21.024;2023-08-31T10:09:18;99749.97;;;26.06;38.79
22031;BME280;11179;52.106;21.024;2023-08-31T10:11:44;99729.25;;;25.26;40.03
22031;BME280;11179;52.106;21.024;2023-08-31T10:14:11;99743.31;;;25.07;40.48
22031;BME280;11179;52.106;21.024;2023-08-31T10:16:44;99743.47;;;25.14;40.43
22031;BME280;11179;52.106;21.024;2023-08-31T10:19:10;99711.03;;;24.98;40.92
22031;BME280;11179;52.106;21.024;2023-08-31T10:21:35;99759.94;;;25.35;40.43
22031;BME280;11179;52.106;21.024;2023-08-31T10:24:02;99754.81;;;25.41;40.71
22031;BME280;11179;52.106;21.024;2023-08-31T10:26:30;99760.72;;;25.55;40.72
22031;BME280;11179;52.106;21.024;2023-08-31T10:29:08;99769.22;;;25.58;40.48
22031;BME280;11179;52.106;21.024;2023-08-31T10:32:00;99765.19;;;25.56;40.29
22031;BME280;11179;52.106;21.024;2023-08-31T10:34:35;99762.28;;;25.33;39.97
22031;BME280;11179;52.106;21.024;2023-08-31T10:37:02;99759.03;;;25.31;40.57
22031;BME280;11179;52.106;21.024;2023-08-31T10:39:45;99711.25;;;25.08;40.77
22031;BME280;11179;52.106;21.024;2023-08-31T10:42:17;99711.56;;;25.03;40.79
22031;BME280;11179;52.106;21.024;2023-08-31T10:44:45;99765.19;;;25.17;40.84
22031;BME280;11179;52.106;21.024;2023-08-31T10:47:17;99776.13;;;25.22;40.94
22031;BME280;11179;52.106;21.024;2023-08-31T10:49:50;99758.50;;;25.03;41.27
22031;BME280;11179;52.106;21.024;2023-08-31T10:52:24;99731.84;;;24.77;41.57
22031;BME280;11179;52.106;21.024;2023-08-31T10:54:56;99761.41;;;24.90;41.82
22031;BME280;11179;52.106;21.024;2023-08-31T10:57:38;99737.44;;;24.77;42.13
22031;BME280;11179;52.106;21.024;2023-08-31T11:03:19;99724.19;;;24.39;42.14
22031;BME280;11179;52.106;21.024;2023-08-31T11:05:54;99753.44;;;24.38;41.66
22031;BME280;11179;52.106;21.024;2023-08-31T11:08:23;99756.25;;;24.38;41.75
22031;BME280;11179;52.106;21.024;2023-08-31T11:10:57;99790.88;;;24.61;42.02
22031;BME280;11179;52.106;21.024;2023-08-31T11:13:24;99744.97;;;24.54;41.81
22031;BME280;11179;52.106;21.024;2023-08-31T11:18:41;99751.38;;;24.89;41.05
22031;BME280;11179;52.106;21.024;2023-08-31T11:21:15;99728.50;;;24.91;40.57
22031;BME280;11179;52.106;21.024;2023-08-31T11:23:42;99763.59;;;25.16;41.08
22031;BME280;11179;52.106;21.024;2023-08-31T11:26:08;99754.19;;;25.28;41.11
22031;BME280;11179;52.106;21.024;2023-08-31T11:28:39;99772.25;;;25.50;40.77
22031;BME280;11179;52.106;21.024;2023-08-31T11:31:09;99749.41;;;25.51;39.90
22031;BME280;11179;52.106;21.024;2023-08-31T11:33:38;99730.91;;;25.50;39.85
22031;BME280;11179;52.106;21.024;2023-08-31T11:36:07;99782.50;;;25.81;39.93
22031;BME280;11179;52.106;21.024;2023-08-31T11:38:35;99761.22;;;25.60;40.28
22031;BME280;11179;52.106;21.024;2023-08-31T11:41:04;99729.66;;;25.48;40.46
22031;BME280;11179;52.106;21.024;2023-08-31T11:43:30;99756.94;;;25.47;40.09
22031;BME280;11179;52.106;21.024;2023-08-31T11:45:56;99781.72;;;25.61;40.02
22031;BME280;11179;52.106;21.024;2023-08-31T11:48:28;99771.09;;;25.74;40.32
22031;BME280;11179;52.106;21.024;2023-08-31T11:50:57;99766.84;;;25.60;40.40
22031;BME280;11179;52.106;21.024;2023-08-31T11:53:27;99792.66;;;25.66;40.50
22031;BME280;11179;52.106;21.024;2023-08-31T11:55:54;99752.81;;;25.41;40.83
22031;BME280;11179;52.106;21.024;2023-08-31T11:58:21;99724.38;;;25.23;40.95
22031;BME280;11179;52.106;21.024;2023-08-31T12:01:00;99741.34;;;25.50;40.75
22031;BME280;11179;52.106;21.024;2023-08-31T12:03:42;99751.63;;;25.61;40.32
22031;BME280;11179;52.106;21.024;2023-08-31T12:06:10;99762.03;;;25.61;40.55
22031;BME280;11179;52.106;21.024;2023-08-31T12:08:37;99718.75;;;25.23;40.43
22031;BME280;11179;52.106;21.024;2023-08-31T12:11:06;99727.50;;;25.18;40.01
22031;BME280;11179;52.106;21.024;2023-08-31T12:13:35;99753.38;;;25.27;40.79
22031;BME280;11179;52.106;21.024;2023-08-31T12:16:10;99773.00;;;25.47;40.54
22031;BME280;11179;52.106;21.024;2023-08-31T12:18:42;99710.34;;;25.23;40.77
22031;BME280;11179;52.106;21.024;2023-08-31T12:21:12;99742.97;;;25.51;40.40
22031;BME280;11179;52.106;21.024;2023-08-31T12:23:39;99711.03;;;25.40;40.32
22031;BME280;11179;52.106;21.024;2023-08-31T12:26:06;99721.28;;;25.28;40.17
22031;BME280;11179;52.106;21.024;2023-08-31T12:28:33;99737.69;;;25.26;40.24
22031;BME280;11179;52.106;21.024;2023-08-31T12:31:00;99743.25;;;25.04;40.34
22031;BME280;11179;52.106;21.024;2023-08-31T12:33:26;99748.94;;;24.88;41.00
22031;BME280;11179;52.106;21.024;2023-08-31T12:35:52;99709.25;;;24.70;41.00
22031;BME280;11179;52.106;21.024;2023-08-31T12:38:21;99728.63;;;24.94;41.22
22031;BME280;11179;52.106;21.024;2023-08-31T12:40:48;99691.22;;;24.71;40.97
22031;BME280;11179;52.106;21.024;2023-08-31T12:43:15;99733.88;;;24.96;40.66
22031;BME280;11179;52.106;21.024;2023-08-31T12:45:41;99728.63;;;24.94;39.70
22031;BME280;11179;52.106;21.024;2023-08-31T12:48:08;99727.56;;;24.83;39.96
22031;BME280;11179;52.106;21.024;2023-08-31T12:50:37;99713.16;;;24.66;39.82
22031;BME280;11179;52.106;21.024;2023-08-31T12:53:04;99678.66;;;24.46;40.15
22031;BME280;11179;52.106;21.024;2023-08-31T12:55:32;99674.59;;;24.43;40.34
22031;BME280;11179;52.106;21.024;2023-08-31T12:58:01;99712.41;;;24.69;40.52
22031;BME280;11179;52.106;21.024;2023-08-31T13:00:30;99712.94;;;24.55;40.62
22031;BME280;11179;52.106;21.024;2023-08-31T13:03:00;99729.03;;;24.58;40.76
22031;BME280;11179;52.106;21.024;2023-08-31T13:05:28;99744.03;;;24.66;40.10
22031;BME280;11179;52.106;21.024;2023-08-31T13:07:58;99718.41;;;24.48;40.45
22031;BME280;11179;52.106;21.024;2023-08-31T13:10:26;99713.88;;;24.27;40.71
22031;BME280;11179;52.106;21.024;2023-08-31T13:12:52;99690.44;;;24.01;40.30
22031;BME280;11179;52.106;21.024;2023-08-31T13:15:18;99753.44;;;24.38;41.09
22031;BME280;11179;52.106;21.024;2023-08-31T13:17:45;99739.34;;;24.19;41.09
22031;BME280;11179;52.106;21.024;2023-08-31T13:20:12;99712.41;;;23.99;40.79